Time;durP1;ratioP1;P1;durP2;ratioP2;P2;SDS_P1;SDS_P2;PMS_P1;PMS_P2;Temp;Humidity;BMP_temperature;BMP_pressure;BME280_temperature;BME280_humidity;BME280_pressure;Samples;Min_cycle;Max_cycle;Signal;HPM_P1;HPM_P2
2022/04/15 00:02:03;;;;;;;5.17;2.90;;;10.20;99.90;;;;;;4883058;29;20231;-77
2022/04/15 00:04:31;;;;;;;9.17;3.13;;;10.10;99.90;;;;;;4898690;29;20671;-78
2022/04/15 00:06:59;;;;;;;5.70;3.00;;;10.10;99.90;;;;;;4898422;29;20613;-81
2022/04/15 00:09:26;;;;;;;6.57;3.00;;;10.00;99.90;;;;;;4898113;29;20238;-79
2022/04/15 00:11:53;;;;;;;4.40;2.53;;;10.00;99.90;;;;;;4898256;29;20848;-81
2022/04/15 00:14:20;;;;;;;7.03;3.20;;;10.00;99.90;;;;;;4897680;29;20244;-75
2022/04/15 00:16:47;;;;;;;6.93;3.33;;;9.90;99.90;;;;;;4898604;29;20664;-79
2022/04/15 00:19:15;;;;;;;7.83;3.07;;;9.90;99.90;;;;;;4895595;29;20226;-80
2022/04/15 00:21:43;;;;;;;5.93;3.00;;;9.90;99.90;;;;;;4880054;29;20291;-81
2022/04/15 00:24:10;;;;;;;6.47;2.80;;;9.90;99.90;;;;;;4881801;29;20273;-79
2022/04/15 00:26:36;;;;;;;6.47;3.27;;;9.90;99.90;;;;;;4897984;29;20214;-80
2022/04/15 00:29:06;;;;;;;5.13;3.20;;;9.90;99.90;;;;;;4898447;29;20237;-79
2022/04/15 00:31:33;;;;;;;4.83;2.97;;;10.00;99.90;;;;;;4898316;29;20210;-77
2022/04/15 00:34:00;;;;;;;5.77;3.10;;;10.00;99.90;;;;;;4898366;29;20206;-79
2022/04/15 00:36:29;;;;;;;6.70;3.50;;;9.90;99.90;;;;;;4898581;29;20215;-80
2022/04/15 00:38:56;;;;;;;6.50;3.60;;;9.90;99.90;;;;;;4898110;29;20231;-80
2022/04/15 00:41:23;;;;;;;6.87;3.50;;;9.90;99.90;;;;;;4898085;29;20245;-81
2022/04/15 00:43:53;;;;;;;7.20;4.00;;;9.90;99.90;;;;;;4879737;29;20660;-79
2022/04/15 00:46:20;;;;;;;8.73;4.00;;;9.80;99.90;;;;;;4879102;29;20218;-80
2022/04/15 00:48:47;;;;;;;10.57;3.70;;;9.80;99.90;;;;;;4879064;29;20235;-79
2022/04/15 00:51:14;;;;;;;9.00;4.17;;;9.80;99.90;;;;;;4879306;29;20222;-77
2022/04/15 00:53:45;;;;;;;7.53;3.80;;;9.80;99.90;;;;;;4879485;29;20215;-80
2022/04/15 00:56:13;;;;;;;9.00;3.20;;;9.80;99.90;;;;;;4879385;29;20213;-80
2022/04/15 00:58:41;;;;;;;7.77;4.33;;;9.70;99.90;;;;;;4878578;29;20231;-81
2022/04/15 01:01:09;;;;;;;8.53;4.30;;;9.80;99.90;;;;;;4879235;29;20235;-80
2022/04/15 01:03:37;;;;;;;7.23;3.90;;;9.70;99.90;;;;;;4878648;29;20215;-79
2022/04/15 01:06:06;;;;;;;7.73;3.87;;;9.70;99.90;;;;;;4878492;29;20211;-81
2022/04/15 01:08:38;;;;;;;9.03;4.40;;;9.80;99.90;;;;;;4878691;29;20633;-80
2022/04/15 01:11:09;;;;;;;9.47;4.60;;;9.70;99.90;;;;;;4879131;29;20227;-81
2022/04/15 01:13:38;;;;;;;9.77;4.13;;;9.60;99.90;;;;;;4878070;29;20219;-81
2022/04/15 01:16:06;;;;;;;7.87;4.03;;;9.70;99.90;;;;;;4878555;29;20736;-76
2022/04/15 01:18:32;;;;;;;10.03;5.13;;;9.70;99.90;;;;;;4878499;29;20238;-76
2022/04/15 01:21:00;;;;;;;6.77;4.00;;;9.70;99.90;;;;;;4878847;29;20600;-79
2022/04/15 01:23:28;;;;;;;10.90;4.70;;;9.60;99.90;;;;;;4882193;29;20217;-74
2022/04/15 01:25:55;;;;;;;7.60;4.60;;;9.60;99.90;;;;;;4884205;29;20685;-78
2022/04/15 01:28:22;;;;;;;9.87;4.13;;;9.60;99.90;;;;;;4897299;29;20234;-81
2022/04/15 01:30:50;;;;;;;9.53;4.50;;;9.60;99.90;;;;;;4894687;29;20565;-77
2022/04/15 01:33:17;;;;;;;9.33;4.80;;;9.60;99.90;;;;;;4896949;29;20690;-80
2022/04/15 01:35:43;;;;;;;10.30;5.27;;;9.60;99.90;;;;;;4895367;29;20208;-76
2022/04/15 01:38:14;;;;;;;9.87;4.87;;;9.50;99.90;;;;;;4896880;29;20230;-80
2022/04/15 01:40:43;;;;;;;7.63;4.17;;;9.40;99.90;;;;;;4897285;29;20214;-73
2022/04/15 01:43:10;;;;;;;8.40;4.80;;;9.30;99.90;;;;;;4896833;29;20576;-74
2022/04/15 01:45:37;;;;;;;13.97;5.27;;;9.30;99.90;;;;;;4896733;29;20207;-79
2022/04/15 01:48:04;;;;;;;10.70;5.27;;;9.20;99.90;;;;;;4896509;29;20230;-80
2022/04/15 01:50:31;;;;;;;8.33;4.30;;;9.30;99.90;;;;;;4896986;29;20215;-81
2022/04/15 01:52:58;;;;;;;10.40;5.30;;;9.30;99.90;;;;;;4894486;29;20211;-75
2022/04/15 01:55:25;;;;;;;12.17;5.30;;;9.40;99.90;;;;;;4877849;29;20272;-76
2022/04/15 01:57:54;;;;;;;7.87;4.37;;;9.40;99.90;;;;;;4876814;29;20239;-79
2022/04/15 02:00:20;;;;;;;9.70;4.70;;;9.50;99.90;;;;;;4877605;29;20207;-78
2022/04/15 02:02:47;;;;;;;7.80;4.73;;;9.40;99.90;;;;;;4877654;29;20239;-76
2022/04/15 02:05:14;;;;;;;9.97;4.70;;;9.30;99.90;;;;;;4878271;29;20869;-74
2022/04/15 02:07:41;;;;;;;8.27;4.60;;;9.20;99.90;;;;;;4877945;29;20227;-76
2022/04/15 02:10:08;;;;;;;9.90;4.87;;;9.20;99.90;;;;;;4878225;29;20213;-79
2022/04/15 02:12:35;;;;;;;8.73;4.87;;;9.20;99.90;;;;;;4878035;29;20223;-77
2022/04/15 02:15:04;;;;;;;8.63;5.00;;;9.10;99.90;;;;;;4877926;29;20219;-80
2022/04/15 02:17:31;;;;;;;9.60;5.17;;;9.10;99.90;;;;;;4878236;29;20211;-80
2022/04/15 02:19:58;;;;;;;12.03;5.30;;;9.10;99.90;;;;;;4877833;29;20226;-76
2022/04/15 02:22:25;;;;;;;10.50;4.93;;;9.10;99.90;;;;;;4878072;29;20243;-73
2022/04/15 02:24:52;;;;;;;9.07;5.13;;;9.10;99.90;;;;;;4877903;29;20207;-77
2022/04/15 02:27:18;;;;;;;9.23;5.10;;;9.00;99.90;;;;;;4877439;29;20207;-81
2022/04/15 02:29:45;;;;;;;9.13;4.90;;;9.00;99.90;;;;;;4877666;29;20943;-76
2022/04/15 02:32:13;;;;;;;10.53;5.27;;;9.10;99.90;;;;;;4877952;29;20221;-79
2022/04/15 02:34:40;;;;;;;10.10;4.93;;;9.00;99.90;;;;;;4878046;29;20211;-75
2022/04/15 02:37:07;;;;;;;9.47;5.43;;;9.10;99.90;;;;;;4877848;29;20578;-78
2022/04/15 02:39:34;;;;;;;10.70;4.93;;;9.00;99.90;;;;;;4877808;29;20347;-80
2022/04/15 02:42:01;;;;;;;12.37;5.53;;;9.00;99.90;;;;;;4877744;29;20730;-72
2022/04/15 02:44:29;;;;;;;11.83;5.83;;;8.90;99.90;;;;;;4877244;29;20207;-78
2022/04/15 02:46:57;;;;;;;9.37;5.50;;;8.90;99.90;;;;;;4877207;29;20251;-74
2022/04/15 02:49:26;;;;;;;10.77;5.97;;;8.90;99.90;;;;;;4877649;29;20234;-75
2022/04/15 02:51:54;;;;;;;11.13;5.43;;;8.90;99.90;;;;;;4877727;29;20263;-80
2022/04/15 02:54:21;;;;;;;9.87;5.93;;;8.90;99.90;;;;;;4877870;29;20310;-77
2022/04/15 02:56:48;;;;;;;11.43;6.33;;;8.90;99.90;;;;;;4877649;29;20241;-80
2022/04/15 02:59:16;;;;;;;9.93;5.93;;;8.90;99.90;;;;;;4877232;29;20226;-78
2022/04/15 03:01:44;;;;;;;10.30;5.73;;;8.90;99.90;;;;;;4877892;29;20235;-74
2022/04/15 03:04:11;;;;;;;11.40;5.77;;;9.00;99.90;;;;;;4878044;29;20219;-75
2022/04/15 03:06:39;;;;;;;12.33;5.87;;;8.90;99.90;;;;;;4877677;29;20239;-73
2022/04/15 03:09:06;;;;;;;12.53;5.73;;;8.80;99.90;;;;;;4879091;29;20231;-76
2022/04/15 03:11:33;;;;;;;12.87;5.80;;;8.90;99.90;;;;;;4881432;29;20251;-80
2022/04/15 03:14:00;;;;;;;12.30;6.50;;;8.80;99.90;;;;;;4880926;29;20222;-77
2022/04/15 03:16:27;;;;;;;14.93;6.37;;;8.80;99.90;;;;;;4881086;29;20234;-74
2022/04/15 03:18:54;;;;;;;11.73;6.33;;;8.80;99.90;;;;;;4880937;29;20235;-80
2022/04/15 03:21:21;;;;;;;13.17;6.57;;;8.70;99.90;;;;;;4881085;29;20243;-81
2022/04/15 03:23:49;;;;;;;10.37;6.27;;;8.70;99.90;;;;;;4881344;29;20211;-81
2022/04/15 03:26:16;;;;;;;12.80;6.00;;;8.70;99.90;;;;;;4881974;29;20238;-77
2022/04/15 03:28:44;;;;;;;12.73;6.77;;;8.60;99.90;;;;;;4881212;29;20231;-81
2022/04/15 03:31:11;;;;;;;13.90;6.47;;;8.60;99.90;;;;;;4880745;29;20227;-78
2022/04/15 03:33:38;;;;;;;12.07;6.23;;;8.60;99.90;;;;;;4880908;29;20641;-80
2022/04/15 03:36:05;;;;;;;13.83;6.50;;;8.60;99.90;;;;;;4880879;29;20583;-77
2022/04/15 03:38:32;;;;;;;12.53;6.47;;;8.60;99.90;;;;;;4879696;29;20582;-74
2022/04/15 03:41:00;;;;;;;12.70;7.23;;;8.60;99.90;;;;;;4880609;29;20234;-78
2022/04/15 03:43:27;;;;;;;11.70;6.53;;;8.60;99.90;;;;;;4879984;29;20243;-76
2022/04/15 03:45:54;;;;;;;14.80;7.30;;;8.70;99.90;;;;;;4897691;29;20214;-77
2022/04/15 03:48:20;;;;;;;13.30;6.60;;;8.70;99.90;;;;;;4898266;29;20241;-75
2022/04/15 03:50:47;;;;;;;16.77;7.63;;;8.60;99.90;;;;;;4899070;29;20671;-76
2022/04/15 03:53:14;;;;;;;12.50;6.83;;;8.60;99.90;;;;;;4897117;29;20210;-80
2022/04/15 03:55:41;;;;;;;14.40;6.70;;;8.50;99.90;;;;;;4899121;29;20214;-75
2022/04/15 03:58:11;;;;;;;12.30;6.63;;;8.50;99.90;;;;;;4891369;29;20704;-74
2022/04/15 04:00:38;;;;;;;13.37;7.20;;;8.50;99.90;;;;;;4880141;29;20215;-80
2022/04/15 04:03:05;;;;;;;15.73;6.90;;;8.40;99.90;;;;;;4880419;29;20599;-79
2022/04/15 04:05:32;;;;;;;13.10;6.30;;;8.30;99.90;;;;;;4879818;29;20221;-75
2022/04/15 04:07:58;;;;;;;13.00;6.87;;;8.20;99.90;;;;;;4880022;29;20259;-77
2022/04/15 04:10:25;;;;;;;14.63;7.00;;;8.20;99.90;;;;;;4880673;29;20222;-80
2022/04/15 04:12:52;;;;;;;13.87;6.90;;;8.20;99.90;;;;;;4880187;29;20249;-76
2022/04/15 04:15:20;;;;;;;12.20;6.70;;;8.20;99.90;;;;;;4880213;29;20214;-77
2022/04/15 04:17:48;;;;;;;15.83;7.40;;;8.20;99.90;;;;;;4880037;29;20233;-77
2022/04/15 04:20:16;;;;;;;13.00;7.37;;;8.20;99.90;;;;;;4878805;29;20250;-78
2022/04/15 04:22:43;;;;;;;13.33;7.10;;;8.20;99.90;;;;;;4880386;29;20915;-72
2022/04/15 04:25:11;;;;;;;14.07;8.00;;;8.10;99.90;;;;;;4879946;29;20211;-72
2022/04/15 04:27:39;;;;;;;15.23;7.83;;;8.20;99.90;;;;;;4879505;29;20234;-72
2022/04/15 04:30:07;;;;;;;16.40;7.70;;;8.20;99.90;;;;;;4879791;29;20238;-73
2022/04/15 04:32:35;;;;;;;14.37;7.70;;;8.20;99.90;;;;;;4879140;29;20219;-73
2022/04/15 04:35:03;;;;;;;14.53;7.37;;;8.10;99.90;;;;;;4880110;29;20238;-80
2022/04/15 04:37:29;;;;;;;15.70;8.30;;;8.20;99.90;;;;;;4879745;29;20218;-72
2022/04/15 04:39:56;;;;;;;14.43;7.43;;;8.10;99.90;;;;;;4879551;29;20206;-79
2022/04/15 04:42:23;;;;;;;15.00;7.87;;;8.10;99.90;;;;;;4879311;29;20243;-81
2022/04/15 04:44:52;;;;;;;16.30;7.33;;;8.00;99.90;;;;;;4879203;29;20218;-80
2022/04/15 04:47:20;;;;;;;14.70;7.60;;;7.90;99.90;;;;;;4879332;29;20215;-80
2022/04/15 04:49:49;;;;;;;14.70;8.30;;;7.90;99.90;;;;;;4882271;29;20647;-78
2022/04/15 04:52:16;;;;;;;14.90;7.70;;;7.90;99.90;;;;;;4898029;29;20221;-77
2022/04/15 04:54:44;;;;;;;16.87;8.57;;;7.90;99.90;;;;;;4898373;29;20631;-79
2022/04/15 04:57:11;;;;;;;15.63;7.70;;;7.90;99.90;;;;;;4893150;29;20207;-79
2022/04/15 04:59:38;;;;;;;15.73;8.43;;;7.90;99.90;;;;;;4879319;29;20246;-81
2022/04/15 05:02:05;;;;;;;15.23;7.93;;;7.90;99.90;;;;;;4879314;29;20231;-80
2022/04/15 05:04:32;;;;;;;14.77;7.77;;;8.00;99.90;;;;;;4879597;29;20293;-80
2022/04/15 05:07:00;;;;;;;16.03;8.00;;;8.00;99.90;;;;;;4879292;29;20221;-79
2022/04/15 05:09:27;;;;;;;15.40;7.47;;;8.00;99.90;;;;;;4879014;29;20243;-80
2022/04/15 05:11:55;;;;;;;15.13;7.80;;;8.00;99.90;;;;;;4879062;29;20316;-80
2022/04/15 05:14:22;;;;;;;15.53;7.80;;;8.00;99.90;;;;;;4878900;29;20214;-72
2022/04/15 05:16:48;;;;;;;13.20;7.53;;;8.10;99.90;;;;;;4878850;29;20215;-80
2022/04/15 05:19:15;;;;;;;13.60;8.00;;;8.10;99.90;;;;;;4879230;29;20237;-80
2022/04/15 05:21:42;;;;;;;15.63;7.67;;;8.10;99.90;;;;;;4878777;29;20207;-78
2022/04/15 05:24:10;;;;;;;15.30;8.03;;;8.10;99.90;;;;;;4878655;29;20665;-80
2022/04/15 05:26:38;;;;;;;14.93;7.90;;;8.30;99.90;;;;;;4878550;29;20217;-77
2022/04/15 05:29:05;;;;;;;16.47;8.57;;;8.40;99.90;;;;;;4878949;29;20620;-80
2022/04/15 05:31:32;;;;;;;14.90;7.43;;;8.50;99.90;;;;;;4878835;29;20211;-80
2022/04/15 05:34:00;;;;;;;13.63;7.27;;;8.60;99.90;;;;;;4878570;29;20523;-79
2022/04/15 05:36:27;;;;;;;17.70;8.73;;;8.60;99.90;;;;;;4878648;29;20219;-77
2022/04/15 05:38:54;;;;;;;15.73;7.87;;;8.70;99.90;;;;;;4878736;29;20785;-80
2022/04/15 05:41:22;;;;;;;13.33;7.57;;;8.80;99.90;;;;;;4878610;29;20215;-81
2022/04/15 05:43:49;;;;;;;17.20;8.10;;;8.80;99.90;;;;;;4878709;29;20243;-80
2022/04/15 05:46:16;;;;;;;17.70;8.47;;;9.00;99.90;;;;;;4878917;29;20211;-80
2022/04/15 05:48:42;;;;;;;15.80;8.53;;;9.20;99.90;;;;;;4879640;29;20231;-80
2022/04/15 05:51:09;;;;;;;15.37;8.17;;;9.40;99.90;;;;;;4896392;29;20568;-80
2022/04/15 05:53:36;;;;;;;16.97;8.87;;;9.50;99.90;;;;;;4897994;29;20226;-73
2022/04/15 05:56:04;;;;;;;15.83;8.57;;;9.70;99.90;;;;;;4883678;29;20214;-80
2022/04/15 05:58:32;;;;;;;14.77;7.23;;;10.00;99.90;;;;;;4878749;29;20716;-81
2022/04/15 06:00:58;;;;;;;12.90;7.30;;;10.40;99.90;;;;;;4880146;29;20280;-80
2022/04/15 06:03:25;;;;;;;14.77;8.40;;;10.80;99.90;;;;;;4879025;29;20465;-79
2022/04/15 06:05:52;;;;;;;15.73;7.63;;;11.20;99.90;;;;;;4879025;29;20218;-76
2022/04/15 06:08:19;;;;;;;15.50;8.17;;;11.50;99.90;;;;;;4878655;29;20241;-80
2022/04/15 06:10:46;;;;;;;15.17;8.17;;;11.60;99.90;;;;;;4879121;29;20211;-79
2022/04/15 06:13:19;;;;;;;15.57;8.13;;;11.90;99.90;;;;;;4878541;29;20218;-79
2022/04/15 06:15:53;;;;;;;15.17;7.77;;;12.30;99.90;;;;;;4878789;29;20731;-76
2022/04/15 06:18:20;;;;;;;14.20;7.57;;;12.70;99.90;;;;;;4878843;29;20227;-79
2022/04/15 06:20:48;;;;;;;12.00;7.03;;;13.00;99.90;;;;;;4878374;29;20214;-79
2022/04/15 06:23:15;;;;;;;13.20;7.80;;;13.30;99.90;;;;;;4878900;29;20334;-78
2022/04/15 06:25:42;;;;;;;13.57;8.10;;;13.50;99.90;;;;;;4879202;29;20214;-76
2022/04/15 06:28:09;;;;;;;16.20;8.37;;;14.20;99.90;;;;;;4878567;29;20738;-79
2022/04/15 06:30:36;;;;;;;16.70;9.17;;;15.40;99.90;;;;;;4878890;29;20288;-78
2022/04/15 06:33:06;;;;;;;20.63;10.63;;;16.50;99.90;;;;;;4878216;29;20207;-80
2022/04/15 06:35:33;;;;;;;18.23;10.90;;;17.70;99.90;;;;;;4881340;29;20747;-78
2022/04/15 06:38:00;;;;;;;18.17;10.60;;;18.80;99.90;;;;;;4893424;29;20249;-79
2022/04/15 06:40:27;;;;;;;20.25;11.30;;;19.40;99.90;;;;;;4897249;29;20699;-79
2022/04/15 06:42:53;;;;;;;18.70;10.40;;;19.70;99.90;;;;;;4896956;29;20234;-79
2022/04/15 06:45:20;;;;;;;19.90;11.48;;;20.20;99.90;;;;;;4902338;29;20293;-77
2022/04/15 06:47:47;;;;;;;18.42;10.90;;;20.40;99.90;;;;;;4901166;29;20233;-79
2022/04/15 06:50:16;;;;;;;18.08;10.73;;;20.70;99.90;;;;;;4901058;29;20210;-73
2022/04/15 06:52:43;;;;;;;18.42;11.75;;;21.10;99.90;;;;;;4900772;29;20305;-79
2022/04/15 06:55:10;;;;;;;17.85;10.85;;;21.60;99.90;;;;;;4883343;29;20577;-78
2022/04/15 06:57:37;;;;;;;18.73;10.88;;;21.50;99.90;;;;;;4881732;29;20222;-79
2022/04/15 07:00:05;;;;;;;19.38;11.02;;;21.60;99.90;;;;;;4885683;29;20202;-75
2022/04/15 07:02:33;;;;;;;18.05;10.23;;;21.30;99.90;;;;;;4898033;29;20571;-78
2022/04/15 07:05:00;;;;;;;19.50;10.30;;;21.70;99.90;;;;;;4884211;29;20214;-78
2022/04/15 07:07:28;;;;;;;16.25;9.77;;;21.60;99.90;;;;;;4900668;29;20217;-77
2022/04/15 07:09:55;;;;;;;15.48;9.95;;;21.50;99.90;;;;;;4900333;29;20234;-78
2022/04/15 07:12:22;;;;;;;16.10;9.52;;;21.40;99.90;;;;;;4887242;29;20223;-77
2022/04/15 07:14:48;;;;;;;15.38;9.27;;;21.40;99.90;;;;;;4881500;29;20211;-78
2022/04/15 07:17:15;;;;;;;15.63;9.77;;;21.40;99.90;;;;;;4882034;29;20220;-78
2022/04/15 07:19:42;;;;;;;18.10;9.15;;;22.00;99.90;;;;;;4882130;29;20231;-75
2022/04/15 17:21:31;;;;;;;9.27;4.53;;;16.60;99.90;;;;;;3891166;23;20642;-71
2022/04/15 17:23:58;;;;;;;5.77;4.03;;;16.70;99.90;;;;;;4932172;29;20244;-71
2022/04/15 17:26:24;;;;;;;5.67;3.60;;;16.70;99.90;;;;;;4935155;29;20239;-71
2022/04/15 17:28:51;;;;;;;5.40;3.50;;;16.60;99.90;;;;;;4934106;29;20220;-70
2022/04/15 17:31:18;;;;;;;5.10;3.57;;;16.60;99.90;;;;;;4934499;29;20209;-69
2022/04/15 17:33:45;;;;;;;5.50;3.77;;;16.50;99.90;;;;;;4934975;29;20213;-74
2022/04/15 17:36:12;;;;;;;5.13;3.50;;;16.60;99.90;;;;;;4934982;29;20596;-76
2022/04/15 17:38:40;;;;;;;7.17;4.20;;;16.70;99.90;;;;;;4934764;29;20236;-71
2022/04/15 17:41:07;;;;;;;7.40;3.93;;;16.70;99.90;;;;;;4934677;29;20204;-74
2022/04/15 17:43:33;;;;;;;7.23;3.97;;;16.70;99.90;;;;;;4933943;29;20246;-69
2022/04/15 17:46:00;;;;;;;5.87;4.00;;;16.60;99.90;;;;;;4934695;29;20213;-80
2022/04/15 17:48:27;;;;;;;10.60;5.77;;;16.60;99.90;;;;;;4934757;29;20270;-73
2022/04/15 17:50:54;;;;;;;10.37;5.47;;;16.50;99.90;;;;;;4934742;29;20268;-69
2022/04/15 17:53:21;;;;;;;7.50;4.47;;;16.40;99.90;;;;;;4934898;29;20220;-82
2022/04/15 17:55:50;;;;;;;6.23;3.73;;;16.30;99.90;;;;;;4934385;29;20209;-70
2022/04/15 17:58:19;;;;;;;6.23;3.87;;;16.40;99.90;;;;;;4934353;29;20238;-71
2022/04/15 18:00:46;;;;;;;6.00;3.60;;;16.50;99.90;;;;;;4934427;29;20209;-76
2022/04/15 18:03:14;;;;;;;5.07;3.60;;;16.60;99.90;;;;;;4936257;29;20204;-73
2022/04/15 18:05:41;;;;;;;5.30;3.77;;;16.70;99.90;;;;;;4935168;29;20205;-69
2022/04/15 18:08:08;;;;;;;4.57;3.37;;;16.60;99.90;;;;;;4934332;29;20725;-71
2022/04/15 18:10:36;;;;;;;6.70;3.90;;;16.60;99.90;;;;;;4934234;29;20209;-71
2022/04/15 18:13:05;;;;;;;6.67;3.83;;;16.50;99.90;;;;;;4934274;29;20275;-75
2022/04/15 18:15:34;;;;;;;3.90;3.20;;;16.40;99.90;;;;;;4934352;29;20212;-71
2022/04/15 18:18:01;;;;;;;5.87;3.37;;;16.30;99.90;;;;;;4934585;29;20313;-81
2022/04/15 18:20:29;;;;;;;4.00;3.00;;;16.20;99.90;;;;;;4934899;29;20217;-70
2022/04/15 18:22:57;;;;;;;7.07;3.33;;;16.20;99.90;;;;;;4934183;29;20633;-69
2022/04/15 18:25:23;;;;;;;4.30;2.80;;;16.10;99.90;;;;;;4934636;29;20240;-70
2022/04/15 18:27:50;;;;;;;5.03;3.50;;;15.90;99.90;;;;;;4934309;29;20228;-73
2022/04/15 18:30:19;;;;;;;4.80;3.47;;;15.90;99.90;;;;;;4933943;29;20223;-70
2022/04/15 18:32:46;;;;;;;5.60;3.70;;;15.70;99.90;;;;;;4934632;29;20215;-80
2022/04/15 18:35:12;;;;;;;5.70;3.53;;;15.70;99.90;;;;;;4934336;29;20208;-77
2022/04/15 18:37:39;;;;;;;4.50;3.40;;;15.40;99.90;;;;;;4934027;29;20212;-70
2022/04/15 18:40:07;;;;;;;5.10;3.43;;;15.40;99.90;;;;;;4932251;29;20220;-70
2022/04/15 18:42:35;;;;;;;5.17;3.27;;;15.10;99.90;;;;;;4934018;29;20209;-72
2022/04/15 18:45:02;;;;;;;4.53;3.00;;;15.00;99.90;;;;;;4934053;29;20288;-70
2022/04/15 18:47:30;;;;;;;4.97;3.23;;;14.90;99.90;;;;;;4933657;29;20284;-69
2022/04/15 18:52:42;;;;;;;5.43;3.10;;;14.90;99.90;;;;;;4933682;29;20209;-69
2022/04/15 18:55:10;;;;;;;5.17;3.50;;;14.70;99.90;;;;;;4933880;29;20223;-71
2022/04/15 18:57:39;;;;;;;6.80;2.97;;;14.70;99.90;;;;;;4933813;29;20257;-71
2022/04/15 19:00:09;;;;;;;4.70;3.10;;;14.60;99.90;;;;;;4932981;29;20213;-77
2022/04/15 19:02:37;;;;;;;5.17;2.93;;;14.70;99.90;;;;;;4934539;29;20272;-78
2022/04/15 19:05:05;;;;;;;4.07;3.10;;;14.50;99.90;;;;;;4934975;29;20709;-77
2022/04/15 19:07:31;;;;;;;4.57;2.87;;;14.40;99.90;;;;;;4935370;29;20212;-70
2022/04/15 19:09:58;;;;;;;4.40;3.00;;;14.40;99.90;;;;;;4935474;29;20300;-77
2022/04/15 19:12:25;;;;;;;4.73;3.33;;;14.50;99.90;;;;;;4935639;29;20219;-72
2022/04/15 19:14:52;;;;;;;5.00;3.00;;;14.40;99.90;;;;;;4935584;29;20220;-72
2022/04/15 19:17:19;;;;;;;4.67;2.80;;;14.20;99.90;;;;;;4935101;29;20684;-70
2022/04/15 19:19:47;;;;;;;6.37;3.70;;;14.20;99.90;;;;;;4935209;29;20708;-73
2022/04/15 19:22:14;;;;;;;4.60;3.20;;;14.00;99.90;;;;;;4935350;29;20276;-70
2022/04/15 19:24:42;;;;;;;5.37;3.33;;;13.80;99.90;;;;;;4935463;29;20237;-75
2022/04/15 19:27:09;;;;;;;6.50;3.30;;;13.70;99.90;;;;;;4935497;29;20216;-71
2022/04/15 19:29:36;;;;;;;6.77;3.70;;;13.60;99.90;;;;;;4935142;29;20237;-76
2022/04/15 19:32:03;;;;;;;7.10;3.63;;;13.60;99.90;;;;;;4935055;29;20688;-73
2022/04/15 19:34:30;;;;;;;5.93;3.80;;;13.70;99.90;;;;;;4935421;29;20292;-76
2022/04/15 19:36:58;;;;;;;4.77;2.97;;;13.70;99.90;;;;;;4935316;29;20581;-77
2022/04/15 19:39:25;;;;;;;6.63;3.60;;;13.50;99.90;;;;;;4935346;29;20231;-74
2022/04/15 19:41:52;;;;;;;7.00;3.33;;;13.60;99.90;;;;;;4935529;29;20220;-76
2022/04/15 19:44:19;;;;;;;5.40;3.50;;;13.40;99.90;;;;;;4934884;29;20243;-78
2022/04/15 19:46:46;;;;;;;8.40;3.93;;;13.20;99.90;;;;;;4934877;29;20223;-72
2022/04/15 19:49:13;;;;;;;6.33;3.80;;;13.10;99.90;;;;;;4934993;29;20304;-74
2022/04/15 19:51:42;;;;;;;5.13;3.53;;;13.00;99.90;;;;;;4937240;29;20209;-77
2022/04/15 19:54:11;;;;;;;5.50;3.63;;;12.90;99.90;;;;;;4938654;29;20244;-70
2022/04/15 20:02:07;;;;;;;8.07;3.87;;;12.70;99.90;;;;;;4938493;29;20328;-75
2022/04/15 20:04:35;;;;;;;6.53;3.80;;;12.50;99.90;;;;;;4938141;29;20300;-75
2022/04/15 20:07:02;;;;;;;8.20;4.20;;;12.40;99.90;;;;;;4937698;29;20209;-73
2022/04/15 20:09:30;;;;;;;8.43;4.30;;;12.30;99.90;;;;;;4937754;29;20224;-73
2022/04/15 20:11:58;;;;;;;7.83;4.73;;;12.20;99.90;;;;;;4937763;29;20209;-72
2022/04/15 20:14:25;;;;;;;8.47;4.97;;;12.20;99.90;;;;;;4938310;29;20704;-73
2022/04/15 20:16:52;;;;;;;10.10;5.10;;;12.10;99.90;;;;;;4938207;29;20209;-73
2022/04/15 20:19:19;;;;;;;9.23;5.47;;;12.00;99.90;;;;;;4937691;29;20353;-72
2022/04/15 20:21:46;;;;;;;7.40;4.90;;;12.10;99.90;;;;;;4937928;29;20209;-78
2022/04/15 20:24:13;;;;;;;9.63;4.80;;;12.00;99.90;;;;;;4937786;29;20598;-77
2022/04/15 20:26:42;;;;;;;7.40;4.77;;;12.00;99.90;;;;;;4938124;29;20205;-75
2022/04/15 20:29:11;;;;;;;8.87;4.03;;;11.90;99.90;;;;;;4937833;29;20232;-74
2022/04/15 20:31:38;;;;;;;8.73;4.70;;;11.70;99.90;;;;;;4937653;29;20204;-74
2022/04/15 20:34:05;;;;;;;6.80;4.23;;;11.50;99.90;;;;;;4937619;29;20213;-76
2022/04/15 20:36:31;;;;;;;6.53;3.90;;;11.40;99.90;;;;;;4937639;29;20272;-78
2022/04/15 20:38:58;;;;;;;6.60;3.70;;;11.40;99.90;;;;;;4938103;29;20233;-79
2022/04/15 20:41:25;;;;;;;7.97;4.33;;;11.40;99.90;;;;;;4937885;29;20208;-77
2022/04/15 20:43:53;;;;;;;7.03;3.93;;;11.40;99.90;;;;;;4937712;29;20219;-72
2022/04/15 20:46:20;;;;;;;6.43;3.87;;;11.30;99.90;;;;;;4937439;29;20221;-77
2022/04/15 20:51:36;;;;;;;7.77;4.10;;;11.30;99.90;;;;;;4900727;29;20671;-74
2022/04/15 20:54:03;;;;;;;6.37;4.00;;;11.20;99.90;;;;;;4937092;29;20596;-74
2022/04/15 20:56:30;;;;;;;6.07;3.77;;;11.10;99.90;;;;;;4937437;29;20212;-72
2022/04/15 20:58:59;;;;;;;7.13;4.20;;;11.00;99.90;;;;;;4937255;29;20228;-71
2022/04/15 21:01:25;;;;;;;7.40;4.20;;;11.00;99.90;;;;;;4937420;29;20213;-71
2022/04/15 21:03:52;;;;;;;7.00;4.10;;;11.00;99.90;;;;;;4936463;29;20216;-72
2022/04/15 21:06:19;;;;;;;8.03;4.27;;;10.90;99.90;;;;;;4937457;29;20213;-71
2022/04/15 21:08:46;;;;;;;7.23;4.03;;;10.90;99.90;;;;;;4936865;29;20229;-71
2022/04/15 21:11:13;;;;;;;5.87;3.67;;;10.80;99.90;;;;;;4937210;29;20215;-71
2022/04/15 21:13:40;;;;;;;8.47;3.63;;;10.70;99.90;;;;;;4937114;29;20213;-75
2022/04/15 21:16:09;;;;;;;6.50;4.03;;;10.70;99.90;;;;;;4937047;29;20307;-71
2022/04/15 21:18:36;;;;;;;7.33;3.50;;;10.60;99.90;;;;;;4936891;29;20705;-75
2022/04/15 21:21:04;;;;;;;6.67;3.50;;;10.50;99.90;;;;;;4937149;29;20295;-71
2022/04/15 21:23:31;;;;;;;5.40;3.73;;;10.50;99.90;;;;;;4936740;29;20224;-73
2022/04/15 21:25:57;;;;;;;6.37;3.60;;;10.50;99.90;;;;;;4936751;29;20236;-72
2022/04/15 21:28:24;;;;;;;8.03;4.10;;;10.30;99.90;;;;;;4936694;29;20239;-75
2022/04/15 21:30:51;;;;;;;6.13;4.53;;;10.30;99.90;;;;;;4936636;29;20581;-75
